Time;durP1;ratioP1;P1;durP2;ratioP2;P2;SDS_P1;SDS_P2;PMS_P1;PMS_P2;Temp;Humidity;BMP_temperature;BMP_pressure;BME280_temperature;BME280_humidity;BME280_pressure;Samples;Min_cycle;Max_cycle;Signal;HPM_P1;HPM_P2
2023/12/04 00:01:58;;;;;;;50.10;21.20;;;0.40;99.90;;;;;;5076108;28;20037;-78
2023/12/04 00:04:24;;;;;;;50.28;22.67;;;-0.20;99.90;;;;;;5076391;28;20036;-78
2023/12/04 00:06:49;;;;;;;46.45;20.50;;;-0.20;99.90;;;;;;5058655;28;20037;-79
2023/12/04 00:09:15;;;;;;;50.50;22.15;;;-0.20;99.90;;;;;;5038711;28;20044;-79
2023/12/04 00:11:40;;;;;;;45.95;21.35;;;-0.20;99.90;;;;;;5078714;28;20037;-78
2023/12/04 00:14:06;;;;;;;49.00;22.38;;;-0.20;99.90;;;;;;5079750;28;20391;-79
2023/12/04 00:16:35;;;;;;;49.17;22.95;;;-0.20;99.90;;;;;;5061682;28;20036;-78
2023/12/04 00:19:04;;;;;;;52.70;23.85;;;-0.20;99.90;;;;;;5079217;28;20059;-78
2023/12/04 00:21:29;;;;;;;52.03;23.73;;;-0.20;99.90;;;;;;5077610;28;20037;-79
2023/12/04 00:23:55;;;;;;;48.88;22.05;;;-0.20;99.90;;;;;;5065155;28;20032;-78
2023/12/04 00:26:20;;;;;;;50.88;22.80;;;-0.20;99.90;;;;;;5076482;28;20079;-79
2023/12/04 00:28:46;;;;;;;42.88;21.08;;;-0.20;99.90;;;;;;5073461;28;20033;-78
2023/12/04 00:31:12;;;;;;;49.88;23.08;;;-0.20;99.90;;;;;;5070137;28;20109;-79
2023/12/04 00:33:37;;;;;;;49.80;23.23;;;-0.20;99.90;;;;;;5080809;28;20143;-79
2023/12/04 00:36:03;;;;;;;42.70;21.90;;;-0.20;99.90;;;;;;5067151;28;20441;-79
2023/12/04 00:38:29;;;;;;;50.58;24.92;;;-0.20;99.90;;;;;;5076890;28;20041;-79
2023/12/04 00:40:55;;;;;;;50.47;22.90;;;-0.20;99.90;;;;;;5081913;28;20075;-78
2023/12/04 00:43:20;;;;;;;53.20;22.35;;;-0.20;99.90;;;;;;5062581;28;20451;-78
2023/12/04 00:45:46;;;;;;;51.83;23.75;;;-0.20;99.90;;;;;;5072592;28;20029;-79
2023/12/04 00:48:11;;;;;;;57.88;25.38;;;-0.20;99.90;;;;;;5056801;28;20445;-78
2023/12/04 00:50:37;;;;;;;49.22;23.40;;;-0.20;99.90;;;;;;5076628;28;20100;-78
2023/12/04 00:53:04;;;;;;;51.53;23.13;;;0.80;99.90;;;;;;5074074;28;20051;-79
2023/12/04 00:55:29;;;;;;;51.42;25.25;;;-0.30;99.90;;;;;;5093631;28;20047;-79
2023/12/04 00:57:55;;;;;;;54.38;22.95;;;-0.30;99.90;;;;;;5083415;28;20066;-79
2023/12/04 01:00:20;;;;;;;56.90;24.73;;;-0.80;99.90;;;;;;5054592;28;20393;-80
2023/12/04 01:02:46;;;;;;;56.85;24.05;;;-0.30;99.90;;;;;;5063070;28;20066;-79
2023/12/04 01:05:12;;;;;;;45.05;22.15;;;-0.30;99.90;;;;;;5091628;28;20084;-79
2023/12/04 01:07:37;;;;;;;54.60;22.63;;;-0.30;99.90;;;;;;5056023;28;20076;-79
2023/12/04 01:10:04;;;;;;;53.83;22.42;;;-0.30;99.90;;;;;;5051210;28;20040;-80
2023/12/04 01:12:29;;;;;;;51.25;22.60;;;-0.30;99.90;;;;;;5051763;28;20048;-79
2023/12/04 01:14:55;;;;;;;51.38;21.02;;;-0.30;99.90;;;;;;5032580;28;20040;-79
2023/12/04 01:17:21;;;;;;;43.13;20.95;;;-0.30;99.90;;;;;;5036324;28;20395;-80
2023/12/04 01:19:46;;;;;;;44.15;20.42;;;-0.30;99.90;;;;;;5054081;28;20053;-79
2023/12/04 01:22:12;;;;;;;52.72;21.63;;;-0.30;99.90;;;;;;5055685;28;20056;-78
2023/12/04 01:24:38;;;;;;;46.85;20.65;;;-0.30;99.90;;;;;;5056827;28;20049;-79
2023/12/04 01:27:04;;;;;;;53.00;22.38;;;-0.30;99.90;;;;;;5051872;28;20102;-78
2023/12/04 01:29:31;;;;;;;47.85;21.65;;;-0.30;99.90;;;;;;5031233;28;20048;-78
2023/12/04 01:31:57;;;;;;;51.00;22.52;;;0.30;99.90;;;;;;5069900;28;20053;-78
2023/12/04 01:34:23;;;;;;;47.95;22.92;;;-0.30;99.90;;;;;;5052557;28;20029;-80
2023/12/04 01:36:48;;;;;;;46.88;22.05;;;-0.30;99.90;;;;;;5065199;28;20041;-78
2023/12/04 01:39:14;;;;;;;45.05;21.65;;;-0.30;99.90;;;;;;5045015;28;20041;-79
2023/12/04 01:41:40;;;;;;;49.67;21.60;;;0.40;99.90;;;;;;5031564;28;20144;-80
2023/12/04 01:44:06;;;;;;;49.33;22.17;;;-0.30;99.90;;;;;;5030816;28;20057;-79
2023/12/04 01:46:33;;;;;;;45.88;21.42;;;-0.30;99.90;;;;;;5059963;28;20079;-80
2023/12/04 01:49:00;;;;;;;48.47;20.15;;;-0.10;99.90;;;;;;5053289;28;20049;-79
2023/12/04 01:51:27;;;;;;;47.92;22.95;;;0.00;99.90;;;;;;5055727;28;20068;-80
2023/12/04 01:53:53;;;;;;;47.88;23.13;;;-0.30;99.90;;;;;;5045570;28;20056;-79
2023/12/04 01:56:22;;;;;;;47.70;20.52;;;-0.30;99.90;;;;;;5056874;28;20044;-80
2023/12/04 01:58:48;;;;;;;53.33;24.90;;;0.70;99.90;;;;;;5092002;28;20049;-79
2023/12/04 02:01:17;;;;;;;50.00;21.05;;;-0.30;99.90;;;;;;5039565;28;20048;-79
2023/12/04 02:03:43;;;;;;;50.65;23.63;;;-0.20;99.90;;;;;;5060359;28;20044;-79
2023/12/04 02:06:10;;;;;;;48.95;22.27;;;-0.30;99.90;;;;;;5054700;28;20044;-82
2023/12/04 02:08:36;;;;;;;51.20;22.67;;;-0.30;99.90;;;;;;5051106;28;20244;-78
2023/12/04 02:11:01;;;;;;;50.20;22.85;;;-0.30;99.90;;;;;;5080738;28;20060;-79
2023/12/04 02:13:27;;;;;;;53.85;22.13;;;-0.30;99.90;;;;;;5095105;28;20072;-80
2023/12/04 02:15:56;;;;;;;55.22;23.40;;;0.10;99.90;;;;;;5064312;28;20045;-81
2023/12/04 02:18:22;;;;;;;49.55;22.27;;;-0.20;99.90;;;;;;5070482;28;20048;-80
2023/12/04 02:20:48;;;;;;;58.40;22.73;;;-0.30;99.90;;;;;;5052918;28;20048;-79
2023/12/04 02:23:14;;;;;;;45.58;21.42;;;-0.30;99.90;;;;;;5088240;28;20127;-81
2023/12/04 02:25:40;;;;;;;49.95;22.48;;;-0.30;99.90;;;;;;5083890;28;20076;-79
2023/12/04 02:28:09;;;;;;;50.58;22.73;;;-0.30;99.90;;;;;;5053750;28;20052;-81
2023/12/04 02:30:37;;;;;;;52.80;21.65;;;-0.20;99.90;;;;;;5040771;28;20036;-80
2023/12/04 02:33:05;;;;;;;48.93;20.97;;;-0.30;99.90;;;;;;5063923;28;20033;-81
2023/12/04 02:35:33;;;;;;;48.13;22.10;;;0.30;99.90;;;;;;5049603;28;20363;-80
2023/12/04 02:38:01;;;;;;;52.97;24.17;;;-0.30;99.90;;;;;;5064412;28;20040;-80
2023/12/04 02:40:27;;;;;;;48.55;21.60;;;-0.30;99.90;;;;;;5039567;28;20064;-80
2023/12/04 02:42:53;;;;;;;48.03;21.15;;;0.20;99.90;;;;;;5079582;28;20115;-81
2023/12/04 02:45:19;;;;;;;54.35;22.80;;;-0.30;99.90;;;;;;5064875;28;20041;-80
2023/12/04 02:47:44;;;;;;;52.92;21.73;;;-0.30;99.90;;;;;;5037970;28;20041;-80
2023/12/04 02:50:10;;;;;;;50.08;24.33;;;-0.30;99.90;;;;;;5065502;28;20041;-81
2023/12/04 02:52:36;;;;;;;52.75;22.60;;;-0.20;99.90;;;;;;5057963;28;20086;-79
2023/12/04 02:55:01;;;;;;;47.92;22.10;;;-0.20;99.90;;;;;;5065171;28;20041;-80
2023/12/04 02:57:27;;;;;;;49.90;21.65;;;-0.20;99.90;;;;;;5066299;28;20056;-80
2023/12/04 02:59:53;;;;;;;53.92;23.90;;;-0.20;99.90;;;;;;5089491;28;20069;-79
2023/12/04 03:02:19;;;;;;;56.03;23.85;;;-0.20;99.90;;;;;;5034170;28;20084;-82
2023/12/04 03:04:45;;;;;;;52.15;23.73;;;0.30;99.90;;;;;;5084669;28;20037;-79
2023/12/04 03:07:11;;;;;;;52.72;21.30;;;0.70;99.90;;;;;;5061575;28;20056;-80
2023/12/04 03:09:37;;;;;;;51.78;21.95;;;-0.20;99.90;;;;;;5046863;28;20033;-80
2023/12/04 03:12:02;;;;;;;49.47;22.42;;;-0.20;99.90;;;;;;5064986;28;20454;-79
2023/12/04 03:14:28;;;;;;;49.35;22.30;;;-0.20;99.90;;;;;;5057933;28;20063;-80
2023/12/04 03:16:54;;;;;;;52.58;22.13;;;-0.20;99.90;;;;;;5061355;28;20083;-79
2023/12/04 03:19:19;;;;;;;55.13;24.38;;;-0.20;99.90;;;;;;5062646;28;20037;-79
2023/12/04 03:21:45;;;;;;;50.72;23.80;;;-0.20;99.90;;;;;;5087151;28;20041;-80
2023/12/04 03:24:11;;;;;;;47.50;21.30;;;-0.10;99.90;;;;;;5044033;28;20045;-81
2023/12/04 03:26:37;;;;;;;50.33;23.23;;;-0.10;99.90;;;;;;5056616;28;20061;-79
2023/12/04 03:29:02;;;;;;;46.53;21.02;;;-0.10;99.90;;;;;;5055059;28;20041;-79
2023/12/04 03:31:28;;;;;;;53.55;23.40;;;1.00;99.90;;;;;;5059822;28;20047;-80
2023/12/04 03:33:54;;;;;;;49.40;21.08;;;-0.10;99.90;;;;;;5056265;28;20521;-81
2023/12/04 03:36:20;;;;;;;45.47;21.00;;;0.90;99.90;;;;;;5087044;28;20149;-80
2023/12/04 03:38:46;;;;;;;46.60;21.13;;;-0.10;99.90;;;;;;5060694;28;20056;-80
2023/12/04 03:41:16;;;;;;;43.17;20.23;;;-0.10;99.90;;;;;;5037854;28;20143;-80
2023/12/04 03:43:42;;;;;;;49.83;22.58;;;-0.10;99.90;;;;;;5060070;28;20044;-80
2023/12/04 03:46:08;;;;;;;49.65;22.90;;;-0.10;99.90;;;;;;5062963;28;20128;-81
2023/12/04 03:48:34;;;;;;;49.00;23.13;;;0.90;99.90;;;;;;5066843;28;20446;-80
2023/12/04 03:50:59;;;;;;;51.50;23.30;;;0.20;99.90;;;;;;5066826;28;20056;-80
2023/12/04 03:53:26;;;;;;;46.20;21.40;;;-0.10;99.90;;;;;;5081459;28;20052;-79
2023/12/04 03:55:52;;;;;;;48.85;22.45;;;0.70;99.90;;;;;;5063971;28;20044;-81
2023/12/04 03:58:17;;;;;;;56.22;23.42;;;-0.10;99.90;;;;;;5062637;28;20068;-80
2023/12/04 04:00:43;;;;;;;47.90;22.50;;;0.00;99.90;;;;;;5055041;28;20049;-80
2023/12/04 04:03:10;;;;;;;51.33;21.48;;;-0.10;99.90;;;;;;5056329;28;20058;-80
2023/12/04 04:05:35;;;;;;;44.40;20.73;;;0.00;99.90;;;;;;5055635;28;20047;-80
2023/12/04 04:08:02;;;;;;;46.75;21.08;;;0.00;99.90;;;;;;5093138;28;20104;-80
2023/12/04 04:10:28;;;;;;;52.42;22.27;;;0.00;99.90;;;;;;5042178;28;20088;-81
2023/12/04 04:12:53;;;;;;;49.70;23.02;;;0.00;99.90;;;;;;5042176;28;20058;-81
2023/12/04 04:15:22;;;;;;;45.90;21.30;;;0.00;99.90;;;;;;5059845;28;20049;-80
2023/12/04 04:17:48;;;;;;;48.00;21.45;;;0.90;99.90;;;;;;5052067;28;20048;-81
2023/12/04 04:20:14;;;;;;;51.53;21.95;;;1.50;99.90;;;;;;5055950;28;20041;-82
2023/12/04 04:22:40;;;;;;;48.25;22.08;;;0.00;99.90;;;;;;5062024;28;20390;-80
2023/12/04 04:25:09;;;;;;;46.53;21.77;;;0.00;99.90;;;;;;5045496;28;20037;-82
2023/12/04 04:27:38;;;;;;;51.45;21.70;;;0.00;99.90;;;;;;5054247;28;20112;-80
2023/12/04 04:30:05;;;;;;;40.08;20.58;;;0.00;99.90;;;;;;5065506;28;20063;-80
2023/12/04 04:32:30;;;;;;;49.33;21.45;;;0.00;99.90;;;;;;5030660;28;20033;-81
2023/12/04 04:34:56;;;;;;;50.25;23.27;;;0.00;99.90;;;;;;5060193;28;20044;-82
2023/12/04 04:37:22;;;;;;;54.58;22.30;;;0.00;99.90;;;;;;5057781;28;20036;-82
2023/12/04 04:39:50;;;;;;;51.85;22.88;;;0.00;99.90;;;;;;5054834;28;20036;-82
2023/12/04 04:42:16;;;;;;;;;;;0.00;99.90;;;;;;5058632;28;20055;-81
2023/12/04 04:44:41;;;;;;;48.20;22.08;;;0.00;99.90;;;;;;5059829;28;19921;-83
2023/12/04 04:47:08;;;;;;;48.33;21.08;;;0.00;99.90;;;;;;5057866;28;20057;-82
2023/12/04 04:49:34;;;;;;;55.00;23.30;;;0.00;99.90;;;;;;5063697;28;20041;-81
2023/12/04 04:52:00;;;;;;;53.10;23.00;;;0.00;99.90;;;;;;5067983;28;20094;-82
2023/12/04 04:54:32;;;;;;;55.50;24.27;;;1.00;99.90;;;;;;5066056;28;20060;-83
2023/12/04 04:57:04;;;;;;;51.40;22.98;;;0.00;99.90;;;;;;5057357;28;20091;-82
2023/12/04 04:59:31;;;;;;;48.50;19.65;;;0.00;99.90;;;;;;5062653;28;20040;-83
2023/12/04 05:01:57;;;;;;;51.03;23.65;;;0.00;99.90;;;;;;5067935;28;20045;-82
2023/12/04 05:04:23;;;;;;;48.45;20.55;;;0.00;99.90;;;;;;5078620;28;20040;-81
2023/12/04 05:06:49;;;;;;;46.75;21.05;;;0.00;99.90;;;;;;5078851;28;20511;-80
2023/12/04 05:09:15;;;;;;;53.03;22.98;;;0.00;99.90;;;;;;5048601;28;20483;-82
2023/12/04 05:11:41;;;;;;;43.35;21.40;;;0.10;99.90;;;;;;5066650;28;20051;-83
2023/12/04 05:14:06;;;;;;;52.00;22.30;;;0.00;99.90;;;;;;5088144;28;20033;-83
2023/12/04 05:16:32;;;;;;;51.20;21.95;;;0.00;99.90;;;;;;5050999;28;20066;-81
2023/12/04 05:18:58;;;;;;;50.58;24.02;;;0.00;99.90;;;;;;5065689;28;20060;-81
2023/12/04 05:21:23;;;;;;;47.78;22.13;;;0.00;99.90;;;;;;5058615;28;20060;-82
2023/12/04 05:23:49;;;;;;;47.00;21.45;;;0.00;99.90;;;;;;5072365;28;20043;-81
2023/12/04 05:26:14;;;;;;;43.83;20.15;;;0.00;99.90;;;;;;5047505;28;20055;-81
2023/12/04 05:28:40;;;;;;;43.83;21.30;;;0.00;99.90;;;;;;5048699;28;20047;-82
2023/12/04 05:31:06;;;;;;;44.05;20.85;;;0.00;99.90;;;;;;5079631;28;20036;-82
2023/12/04 05:33:32;;;;;;;46.33;20.38;;;0.00;99.90;;;;;;5082388;28;20124;-81
2023/12/04 05:35:57;;;;;;;44.55;20.95;;;0.00;99.90;;;;;;5083206;28;20041;-82
2023/12/04 05:38:23;;;;;;;55.33;22.73;;;0.00;99.90;;;;;;5086993;28;20056;-83
2023/12/04 05:40:49;;;;;;;46.38;21.80;;;1.10;99.90;;;;;;5070540;28;20045;-81
2023/12/04 05:43:14;;;;;;;48.67;21.50;;;0.00;99.90;;;;;;5070135;28;20025;-81
2023/12/04 05:45:40;;;;;;;49.88;21.17;;;0.00;99.90;;;;;;5059828;28;20048;-82
2023/12/04 05:48:06;;;;;;;46.90;20.83;;;0.00;99.90;;;;;;5077256;28;20055;-81
2023/12/04 05:50:32;;;;;;;46.97;21.10;;;0.00;99.90;;;;;;5097725;28;20042;-80
2023/12/04 05:52:58;;;;;;;44.15;20.85;;;0.00;99.90;;;;;;5074741;28;20044;-81
2023/12/04 05:55:24;;;;;;;44.55;20.60;;;0.40;99.90;;;;;;5058074;28;20044;-81
2023/12/04 05:57:50;;;;;;;37.70;18.77;;;-0.10;99.90;;;;;;5070264;28;20044;-81
2023/12/04 06:00:18;;;;;;;44.13;19.60;;;0.00;99.90;;;;;;5082434;28;20053;-81
2023/12/04 06:02:45;;;;;;;39.58;19.10;;;0.00;99.90;;;;;;5068607;28;20412;-80
2023/12/04 06:05:11;;;;;;;43.63;20.17;;;0.00;99.90;;;;;;5065743;28;20068;-80
2023/12/04 06:07:41;;;;;;;40.05;17.83;;;0.00;99.90;;;;;;5079212;28;20066;-81
2023/12/04 06:10:08;;;;;;;42.58;20.42;;;0.10;99.90;;;;;;5068974;28;20037;-79
2023/12/04 06:12:34;;;;;;;47.50;19.92;;;0.00;99.90;;;;;;5073888;28;20067;-81
2023/12/04 06:15:00;;;;;;;39.85;20.65;;;0.00;99.90;;;;;;5059223;28;20040;-81
2023/12/04 06:17:28;;;;;;;37.03;19.00;;;0.10;99.90;;;;;;5087773;28;20126;-81
2023/12/04 06:19:54;;;;;;;39.37;18.97;;;0.10;99.90;;;;;;5090727;28;20041;-80
2023/12/04 06:22:21;;;;;;;39.13;19.33;;;0.10;99.90;;;;;;5051415;28;20397;-82
2023/12/04 06:24:48;;;;;;;39.15;19.02;;;0.00;99.90;;;;;;5067944;28;20098;-82
2023/12/04 06:27:17;;;;;;;36.85;18.60;;;0.10;99.90;;;;;;5092550;28;20040;-80
2023/12/04 06:29:44;;;;;;;40.15;19.27;;;0.10;99.90;;;;;;5075969;28;20024;-81
2023/12/04 06:32:11;;;;;;;45.17;20.67;;;0.10;99.90;;;;;;5064022;28;20051;-81
2023/12/04 06:34:37;;;;;;;36.15;18.00;;;0.10;99.90;;;;;;5060093;28;20100;-80
2023/12/04 06:37:14;;;;;;;35.92;17.90;;;0.10;99.90;;;;;;5084683;28;20036;-80
2023/12/04 06:39:41;;;;;;;34.25;17.45;;;0.10;99.90;;;;;;5087824;28;20058;-82
2023/12/04 06:42:08;;;;;;;38.00;17.95;;;0.10;99.90;;;;;;5104819;28;20040;-79
2023/12/04 06:44:34;;;;;;;41.20;19.35;;;0.10;99.90;;;;;;5108735;28;20054;-82
2023/12/04 06:47:03;;;;;;;37.05;18.98;;;0.10;99.90;;;;;;5053528;28;20041;-82
2023/12/04 06:49:32;;;;;;;38.28;18.15;;;0.10;99.90;;;;;;5091495;28;20044;-81
2023/12/04 06:51:59;;;;;;;36.92;17.50;;;0.10;99.90;;;;;;5093138;28;20052;-81
2023/12/04 06:54:25;;;;;;;35.17;17.42;;;0.10;99.90;;;;;;5091380;28;20140;-80
2023/12/04 06:56:57;;;;;;;38.85;18.25;;;0.10;99.90;;;;;;5093989;28;20064;-81
2023/12/04 06:59:22;;;;;;;36.78;18.02;;;0.20;99.90;;;;;;5092842;28;20029;-81
2023/12/04 07:01:48;;;;;;;36.17;17.17;;;0.10;99.90;;;;;;5074814;28;20066;-83
2023/12/04 07:04:14;;;;;;;34.92;17.92;;;0.10;99.90;;;;;;5065510;28;20072;-84
2023/12/04 07:06:43;;;;;;;38.90;17.98;;;0.10;99.90;;;;;;5081289;28;20100;-82
2023/12/04 07:09:08;;;;;;;39.28;18.00;;;0.10;99.90;;;;;;5081957;28;20112;-82
2023/12/04 07:11:35;;;;;;;36.65;18.05;;;0.10;99.90;;;;;;5068411;28;20044;-82
2023/12/04 07:14:01;;;;;;;37.97;19.27;;;0.10;99.90;;;;;;5084811;28;20084;-81
2023/12/04 07:16:27;;;;;;;39.40;18.83;;;0.10;99.90;;;;;;5052966;28;20371;-82
2023/12/04 07:18:56;;;;;;;37.97;18.55;;;0.10;99.90;;;;;;5089502;28;20052;-83
2023/12/04 07:21:21;;;;;;;35.25;17.15;;;0.10;99.90;;;;;;5089376;28;20037;-83
2023/12/04 07:23:47;;;;;;;37.60;17.15;;;0.10;99.90;;;;;;5053744;28;20094;-81
2023/12/04 07:26:13;;;;;;;35.08;16.90;;;1.00;99.90;;;;;;5068181;28;20044;-82
2023/12/04 07:28:38;;;;;;;38.65;16.98;;;0.00;99.90;;;;;;5057761;28;20044;-82
2023/12/04 07:31:04;;;;;;;33.15;16.52;;;0.00;99.90;;;;;;5081636;28;20458;-82
2023/12/04 07:33:31;;;;;;;34.35;17.40;;;0.00;99.90;;;;;;5063944;28;20055;-84
2023/12/04 07:36:00;;;;;;;41.47;17.65;;;0.00;99.90;;;;;;5065403;28;20040;-83
2023/12/04 07:38:27;;;;;;;36.90;17.67;;;0.00;99.90;;;;;;5042518;28;20142;-82
2023/12/04 07:40:58;;;;;;;31.83;16.65;;;0.00;99.90;;;;;;5080349;28;20056;-82
2023/12/04 07:43:24;;;;;;;;;;;0.00;99.90;;;;;;5079761;28;20037;-84
2023/12/04 07:45:49;;;;;;;35.55;16.95;;;0.40;99.90;;;;;;5062205;28;19928;-82
2023/12/04 07:48:16;;;;;;;29.95;15.73;;;0.10;99.90;;;;;;5061768;28;20075;-84
2023/12/04 07:50:42;;;;;;;31.23;16.15;;;0.10;99.90;;;;;;5033968;28;20055;-85
2023/12/04 07:53:09;;;;;;;36.78;16.55;;;0.10;99.90;;;;;;5065522;28;20052;-82
2023/12/04 07:55:35;;;;;;;30.95;15.55;;;0.10;99.90;;;;;;5077787;28;20411;-84
2023/12/04 07:58:04;;;;;;;32.22;16.88;;;0.10;99.90;;;;;;5085782;28;20037;-82
2023/12/04 08:00:30;;;;;;;30.88;15.23;;;0.10;99.90;;;;;;5066755;28;20418;-82
2023/12/04 08:02:56;;;;;;;29.85;15.65;;;0.00;99.90;;;;;;5078481;28;20041;-84
2023/12/04 08:05:22;;;;;;;33.10;15.75;;;0.10;99.90;;;;;;5073462;28;20044;-82
2023/12/04 08:07:51;;;;;;;32.65;15.50;;;-1.00;99.90;;;;;;5082464;28;20127;-85
2023/12/04 08:10:17;;;;;;;32.90;16.48;;;0.10;99.90;;;;;;5063703;28;20453;-84
2023/12/04 08:12:46;;;;;;;31.42;14.65;;;0.10;99.90;;;;;;5077348;28;20047;-82
2023/12/04 08:15:13;;;;;;;36.55;16.73;;;0.10;99.90;;;;;;5078593;28;20048;-83
2023/12/04 08:17:41;;;;;;;29.45;15.07;;;0.10;99.90;;;;;;5065189;28;20037;-83
2023/12/04 08:20:07;;;;;;;26.58;14.88;;;0.10;99.90;;;;;;5096833;28;20408;-83
2023/12/04 08:22:33;;;;;;;28.92;15.90;;;0.10;99.90;;;;;;5063831;28;20036;-83
2023/12/04 08:24:59;;;;;;;28.33;14.20;;;1.30;99.90;;;;;;5099999;28;20083;-82
2023/12/04 08:27:28;;;;;;;28.73;15.50;;;0.20;99.90;;;;;;5072349;28;20048;-83
2023/12/04 08:29:53;;;;;;;28.92;14.38;;;0.20;99.90;;;;;;5082430;28;20086;-83
2023/12/04 08:32:21;;;;;;;26.98;14.65;;;0.70;99.90;;;;;;5050296;28;20084;-82
2023/12/04 08:34:46;;;;;;;26.33;14.27;;;2.10;99.90;;;;;;5062215;28;20033;-84
2023/12/04 08:37:12;;;;;;;27.55;14.82;;;0.00;99.90;;;;;;5098749;28;20490;-84
2023/12/04 08:39:38;;;;;;;26.02;14.75;;;-0.10;99.90;;;;;;5066680;28;20044;-82
2023/12/04 08:42:04;;;;;;;29.15;14.48;;;0.30;99.90;;;;;;5059193;28;20040;-83
2023/12/04 08:44:29;;;;;;;27.27;13.75;;;0.30;99.90;;;;;;5063640;28;20044;-86
2023/12/04 08:47:02;;;;;;;24.83;13.25;;;0.30;99.90;;;;;;5084148;28;20036;-82
2023/12/04 08:49:27;;;;;;;31.45;15.93;;;0.30;99.90;;;;;;5102096;28;20066;-82
2023/12/04 08:51:53;;;;;;;27.48;15.00;;;0.30;99.90;;;;;;5035041;28;20053;-82
2023/12/04 08:54:19;;;;;;;25.90;13.68;;;0.40;99.90;;;;;;5096263;28;20104;-82
2023/12/04 08:56:44;;;;;;;25.13;13.60;;;0.40;99.90;;;;;;5079614;28;20458;-83
2023/12/04 08:59:10;;;;;;;26.80;12.77;;;0.30;99.90;;;;;;5064856;28;20109;-83
2023/12/04 09:01:36;;;;;;;22.23;12.82;;;0.40;99.90;;;;;;5081779;28;20102;-83
2023/12/04 09:04:02;;;;;;;25.85;13.95;;;0.30;99.90;;;;;;5081111;28;20040;-84
2023/12/04 09:06:28;;;;;;;23.77;13.32;;;1.10;99.90;;;;;;5053472;28;20052;-82
2023/12/04 09:08:53;;;;;;;20.83;11.70;;;0.40;99.90;;;;;;5067233;28;20075;-82
2023/12/04 09:11:19;;;;;;;25.23;13.45;;;0.50;99.90;;;;;;5099739;28;20096;-82
2023/12/04 09:13:45;;;;;;;23.50;13.27;;;0.50;99.90;;;;;;5082979;28;20127;-82
2023/12/04 09:16:11;;;;;;;23.13;12.80;;;0.40;99.90;;;;;;5052315;28;20410;-83
2023/12/04 09:18:36;;;;;;;24.63;13.05;;;0.50;99.90;;;;;;5075098;28;20040;-82
2023/12/04 09:21:02;;;;;;;23.77;12.68;;;0.50;99.90;;;;;;5050998;28;20048;-82
2023/12/04 09:23:28;;;;;;;27.08;12.88;;;0.50;99.90;;;;;;5071969;28;20041;-82
2023/12/04 09:25:54;;;;;;;21.30;13.20;;;0.50;99.90;;;;;;5094222;28;20040;-82
2023/12/04 09:28:20;;;;;;;24.00;13.45;;;0.60;99.90;;;;;;5087310;28;20141;-82
2023/12/04 09:30:48;;;;;;;21.58;12.35;;;1.60;99.90;;;;;;5073796;28;20049;-81
2023/12/04 09:33:14;;;;;;;19.77;10.98;;;0.60;99.90;;;;;;5090756;28;20047;-81
2023/12/04 09:35:40;;;;;;;21.67;11.23;;;0.50;99.90;;;;;;5085770;28;20039;-82
2023/12/04 09:38:06;;;;;;;19.70;11.55;;;0.60;99.90;;;;;;5094856;28;20135;-81
2023/12/04 09:40:32;;;;;;;22.50;11.02;;;0.50;99.90;;;;;;5074158;28;20037;-82
2023/12/04 09:42:58;;;;;;;20.67;11.30;;;0.50;99.90;;;;;;5088134;28;20055;-82
2023/12/04 09:45:26;;;;;;;19.42;11.52;;;0.60;99.90;;;;;;5080576;28;20549;-82
2023/12/04 09:47:52;;;;;;;19.13;10.98;;;1.60;99.90;;;;;;5091650;28;20106;-82
2023/12/04 09:50:20;;;;;;;23.85;12.50;;;0.70;99.90;;;;;;5056043;28;20060;-81
2023/12/04 09:52:53;;;;;;;;;;;0.70;99.90;;;;;;5077104;28;20041;-81
2023/12/04 09:55:19;;;;;;;21.98;11.27;;;0.70;99.90;;;;;;5087632;28;19976;-83
2023/12/04 09:57:46;;;;;;;20.95;11.07;;;0.80;99.90;;;;;;5059239;28;20043;-83
2023/12/04 10:00:16;;;;;;;17.95;11.13;;;0.80;99.90;;;;;;5068206;28;20078;-82
2023/12/04 10:02:42;;;;;;;20.25;11.90;;;0.80;99.90;;;;;;5111678;28;20037;-82
2023/12/04 10:05:09;;;;;;;18.75;10.90;;;-0.30;99.90;;;;;;5095401;28;20055;-81
2023/12/04 10:07:36;;;;;;;18.92;11.63;;;1.90;99.90;;;;;;5058448;28;20040;-81
2023/12/04 10:10:05;;;;;;;19.85;11.25;;;2.40;99.90;;;;;;5043394;28;20044;-82
2023/12/04 10:12:33;;;;;;;17.52;10.00;;;0.90;99.90;;;;;;5093688;28;20072;-82
2023/12/04 10:15:10;;;;;;;21.75;11.55;;;1.30;99.90;;;;;;5072793;28;20049;-84
2023/12/04 10:17:41;;;;;;;18.15;11.07;;;1.00;99.90;;;;;;5074226;28;20450;-82
2023/12/04 10:20:17;;;;;;;19.25;10.65;;;1.10;99.90;;;;;;5078161;28;20099;-82
2023/12/04 10:22:57;;;;;;;19.67;11.07;;;1.10;99.90;;;;;;5104883;28;20608;-84
2023/12/04 10:25:29;;;;;;;22.73;11.48;;;1.10;99.90;;;;;;5058017;28;20053;-83
2023/12/04 10:28:07;;;;;;;17.88;10.32;;;1.20;99.90;;;;;;5052773;28;20119;-84
2023/12/04 10:30:33;;;;;;;21.50;10.57;;;1.70;99.90;;;;;;5072205;28;20043;-84
2023/12/04 10:33:05;;;;;;;17.15;9.68;;;2.20;99.90;;;;;;5079372;28;20044;-82
2023/12/04 10:35:33;;;;;;;17.15;9.73;;;1.30;99.90;;;;;;5042672;28;20045;-83
2023/12/04 10:37:59;;;;;;;16.92;9.98;;;1.30;99.90;;;;;;5085400;28;20471;-83
2023/12/04 10:40:26;;;;;;;21.23;10.18;;;1.30;99.90;;;;;;5055427;28;20049;-83
2023/12/04 10:43:15;;;;;;;18.38;11.27;;;1.30;99.90;;;;;;5063848;28;20051;-84
2023/12/04 10:45:42;;;;;;;19.20;9.70;;;1.30;99.90;;;;;;5064162;28;20033;-80
2023/12/04 10:48:08;;;;;;;16.98;9.40;;;2.40;99.90;;;;;;5049622;28;20048;-81
2023/12/04 10:50:39;;;;;;;17.50;10.05;;;1.30;99.90;;;;;;5061766;28;20074;-80
2023/12/04 10:53:09;;;;;;;16.75;9.40;;;1.30;99.90;;;;;;5068515;28;20045;-80
2023/12/04 10:55:36;;;;;;;17.83;10.48;;;2.20;99.90;;;;;;5053818;28;20068;-81
2023/12/04 10:58:07;;;;;;;14.55;9.20;;;1.30;99.90;;;;;;5070589;28;20051;-81
2023/12/04 11:00:46;;;;;;;15.07;9.65;;;1.30;99.90;;;;;;5085976;28;20114;-80
2023/12/04 11:03:22;;;;;;;15.70;8.82;;;1.30;99.90;;;;;;5097620;28;20045;-80
2023/12/04 11:05:55;;;;;;;15.13;8.57;;;1.30;99.90;;;;;;5102447;28;20059;-79
2023/12/04 11:08:23;;;;;;;15.93;9.75;;;1.30;99.90;;;;;;5087015;28;20044;-80
2023/12/04 11:11:15;;;;;;;15.68;8.82;;;1.30;99.90;;;;;;5042904;28;20486;-79
2023/12/04 11:13:45;;;;;;;17.30;9.85;;;1.40;99.90;;;;;;5074849;28;20459;-79
2023/12/04 11:16:20;;;;;;;16.83;10.32;;;1.40;99.90;;;;;;5076315;28;20491;-79
2023/12/04 11:18:51;;;;;;;15.65;8.73;;;1.50;99.90;;;;;;5072440;28;20096;-80
2023/12/04 11:21:20;;;;;;;16.80;9.25;;;1.50;99.90;;;;;;5041498;28;20037;-80
2023/12/04 11:23:50;;;;;;;16.73;9.65;;;1.50;99.90;;;;;;5072599;28;20367;-79
2023/12/04 11:26:16;;;;;;;15.20;9.50;;;2.00;99.90;;;;;;5050810;28;20048;-79
2023/12/04 11:28:43;;;;;;;17.45;9.13;;;2.40;99.90;;;;;;5064131;28;20043;-78
2023/12/04 11:31:08;;;;;;;13.30;8.40;;;1.70;99.90;;;;;;5072621;28;20052;-79
2023/12/04 11:33:36;;;;;;;13.90;7.80;;;1.70;99.90;;;;;;5073504;28;20040;-78
2023/12/04 11:36:09;;;;;;;14.33;8.17;;;2.10;99.90;;;;;;5071069;28;20044;-78
2023/12/04 11:38:36;;;;;;;15.32;9.27;;;1.80;99.90;;;;;;5048020;28;20061;-79
2023/12/04 11:41:15;;;;;;;14.75;8.52;;;1.80;99.90;;;;;;5073789;28;20075;-77
2023/12/04 11:43:42;;;;;;;13.32;8.38;;;1.80;99.90;;;;;;5071976;28;20064;-78
2023/12/04 11:46:11;;;;;;;14.07;8.63;;;1.80;99.90;;;;;;5055187;28;20089;-79
2023/12/04 11:48:43;;;;;;;17.35;8.43;;;1.90;99.90;;;;;;5089832;28;20430;-78
2023/12/04 11:51:08;;;;;;;13.40;8.18;;;1.90;99.90;;;;;;5042446;28;20056;-78
2023/12/04 11:53:40;;;;;;;16.25;9.95;;;1.90;99.90;;;;;;5075170;28;20040;-79
2023/12/04 11:56:12;;;;;;;15.85;9.23;;;1.90;99.90;;;;;;5055992;28;20048;-79
2023/12/04 11:58:45;;;;;;;13.13;8.75;;;1.80;99.90;;;;;;5056996;28;20080;-77
2023/12/04 12:01:11;;;;;;;14.35;8.85;;;1.80;99.90;;;;;;5050257;28;20502;-79
2023/12/04 12:03:37;;;;;;;14.05;8.55;;;1.80;99.90;;;;;;5056915;28;20067;-78
2023/12/04 12:06:04;;;;;;;16.55;9.15;;;1.80;99.90;;;;;;5072859;28;20041;-77
2023/12/04 12:08:30;;;;;;;16.13;9.57;;;1.80;99.90;;;;;;5035264;28;20446;-78
2023/12/04 12:10:59;;;;;;;17.10;9.23;;;1.80;99.90;;;;;;5074875;28;20036;-79
2023/12/04 12:13:27;;;;;;;14.95;9.35;;;1.80;99.90;;;;;;5042313;28;20483;-79
2023/12/04 12:15:53;;;;;;;15.45;9.55;;;1.80;99.90;;;;;;5073132;28;20048;-78
2023/12/04 12:18:21;;;;;;;13.10;8.73;;;1.40;99.90;;;;;;5037150;28;20049;-80
2023/12/04 12:20:47;;;;;;;14.10;8.75;;;1.70;99.90;;;;;;5076771;28;20044;-80
2023/12/04 12:23:12;;;;;;;18.40;10.38;;;1.70;99.90;;;;;;5039163;28;20441;-79
2023/12/04 12:25:38;;;;;;;15.40;8.18;;;1.70;99.90;;;;;;5047486;28;20515;-79
2023/12/04 12:28:07;;;;;;;17.75;8.75;;;1.60;99.90;;;;;;5052063;28;20041;-79
2023/12/04 12:30:33;;;;;;;16.48;9.35;;;1.60;99.90;;;;;;5074882;28;20127;-79
2023/12/04 12:32:59;;;;;;;14.68;9.32;;;1.60;99.90;;;;;;5078540;28;20072;-81
2023/12/04 12:35:25;;;;;;;15.88;9.40;;;1.60;99.90;;;;;;5058722;28;20040;-80